Time;durP1;ratioP1;P1;durP2;ratioP2;P2;SDS_P1;SDS_P2;PMS_P1;PMS_P2;Temp;Humidity;BMP_temperature;BMP_pressure;BME280_temperature;BME280_humidity;BME280_pressure;Samples;Min_cycle;Max_cycle;Signal;HPM_P1;HPM_P2
2022/08/20 00:01:15;;;;;;;4.10;2.92;;;;;;;26.60;51.32;98652.38;4916490;29;20232;-59
2022/08/20 00:03:42;;;;;;;4.57;3.03;;;;;;;26.60;51.27;98652.38;4916303;29;20264;-59
2022/08/20 00:06:11;;;;;;;4.82;3.25;;;;;;;26.59;51.43;98645.53;4915879;29;20231;-59
2022/08/20 00:08:40;;;;;;;4.72;3.05;;;;;;;26.60;51.50;98652.38;4916097;29;20219;-59
2022/08/20 00:11:09;;;;;;;4.90;3.60;;;;;;;26.54;51.61;98653.28;4915926;29;20243;-59
2022/08/20 00:13:40;;;;;;;6.47;3.50;;;;;;;26.52;51.51;98655.31;4916038;29;20201;-59
2022/08/20 00:16:07;;;;;;;3.92;3.08;;;;;;;26.50;51.93;98657.34;4915681;29;20223;-59
2022/08/20 00:18:36;;;;;;;3.92;3.35;;;;;;;26.45;52.03;98654.59;4916054;29;20223;-59
2022/08/20 00:21:07;;;;;;;4.47;3.60;;;;;;;26.39;51.99;98662.34;4916063;29;20235;-59
2022/08/20 00:23:35;;;;;;;4.13;3.30;;;;;;;26.35;52.05;98655.91;4915866;29;20232;-59
2022/08/20 00:26:04;;;;;;;5.07;3.28;;;;;;;26.27;52.30;98661.50;4915801;29;20733;-59
2022/08/20 00:28:30;;;;;;;4.13;3.30;;;;;;;26.24;52.42;98654.09;4915681;29;20197;-59
2022/08/20 00:30:58;;;;;;;4.05;3.13;;;;;;;26.18;52.67;98660.22;4915900;29;20250;-59
2022/08/20 00:33:25;;;;;;;5.18;3.22;;;;;;;26.10;52.79;98663.16;4915789;29;20627;-59
2022/08/20 00:35:55;;;;;;;4.43;3.28;;;;;;;26.03;53.09;98657.19;4915765;29;20745;-59
2022/08/20 00:38:23;;;;;;;6.38;3.47;;;;;;;25.93;53.59;98658.50;4916086;29;20231;-59
2022/08/20 00:40:52;;;;;;;4.38;3.20;;;;;;;25.87;54.30;98659.38;4915662;29;20219;-59
2022/08/20 00:43:34;;;;;;;4.65;3.15;;;;;;;25.81;54.10;98657.63;4915532;29;20200;-59
2022/08/20 00:46:05;;;;;;;6.25;3.47;;;;;;;25.71;54.00;98649.47;4915817;29;20224;-59
2022/08/20 00:48:34;;;;;;;5.43;3.15;;;;;;;25.63;53.75;98652.41;4915278;29;20200;-59
2022/08/20 00:51:05;;;;;;;5.07;3.40;;;;;;;25.56;54.69;98655.09;4914746;29;20251;-59
2022/08/20 00:53:33;;;;;;;4.93;3.50;;;;;;;25.47;54.70;98654.56;4915346;29;20648;-59
2022/08/20 00:56:00;;;;;;;4.90;3.35;;;;;;;25.41;54.76;98644.97;4915101;29;20311;-59
2022/08/20 00:58:30;;;;;;;4.25;3.22;;;;;;;25.39;54.85;98649.63;4915281;29;21248;-59
2022/08/20 01:00:57;;;;;;;4.10;3.33;;;;;;;25.41;54.91;98636.34;4915296;29;20243;-59
2022/08/20 01:03:24;;;;;;;4.88;3.60;;;;;;;25.48;54.72;98634.44;4915172;29;20204;-58
2022/08/20 01:05:52;;;;;;;4.35;3.30;;;;;;;25.51;54.52;98632.19;4915318;29;20236;-59
2022/08/20 01:08:23;;;;;;;6.25;3.30;;;;;;;25.52;54.56;98625.94;4915041;29;20208;-58
2022/08/20 01:10:52;;;;;;;4.97;3.40;;;;;;;25.62;53.96;98620.16;4915228;29;20276;-59
2022/08/20 01:13:22;;;;;;;6.50;3.28;;;;;;;25.50;54.51;98617.50;4915012;29;20231;-59
2022/08/20 01:15:54;;;;;;;5.00;3.58;;;;;;;25.41;54.68;98621.41;4914811;29;20236;-59
2022/08/20 01:18:24;;;;;;;5.53;3.03;;;;;;;25.31;54.94;98615.91;4914974;29;20200;-67
2022/08/20 01:20:55;;;;;;;4.75;3.25;;;;;;;25.23;55.41;98616.97;4914866;29;20224;-67
2022/08/20 01:23:28;;;;;;;5.00;3.40;;;;;;;25.10;55.75;98611.06;4914844;29;20596;-67
2022/08/20 01:26:03;;;;;;;6.25;3.22;;;;;;;25.00;56.29;98601.88;4914744;29;20288;-67
2022/08/20 01:28:34;;;;;;;3.78;3.05;;;;;;;24.96;56.49;98600.72;4914716;29;20623;-66
2022/08/20 01:31:02;;;;;;;4.35;3.35;;;;;;;25.06;56.38;98600.22;4914560;29;20306;-67
2022/08/20 01:33:30;;;;;;;6.90;4.05;;;;;;;24.90;56.98;98596.38;4914848;29;20278;-66
2022/08/20 01:35:58;;;;;;;6.55;3.13;;;;;;;24.87;57.13;98595.97;4914622;29;20231;-66
2022/08/20 01:38:25;;;;;;;5.90;3.63;;;;;;;24.85;57.14;98593.59;4914411;29;20215;-66
2022/08/20 01:41:16;;;;;;;4.75;3.55;;;;;;;24.76;57.46;98594.88;4914313;29;20228;-67
2022/08/20 01:43:45;;;;;;;5.47;3.70;;;;;;;24.72;57.53;98598.91;4914397;29;20206;-67
2022/08/20 01:46:13;;;;;;;4.78;3.30;;;;;;;24.60;58.00;98601.44;4914216;29;20228;-66
2022/08/20 01:48:41;;;;;;;6.85;3.40;;;;;;;24.54;58.49;98603.06;4914336;29;20375;-67
2022/08/20 01:51:13;;;;;;;4.32;3.30;;;;;;;24.53;58.71;98601.50;4913898;29;20640;-66
2022/08/20 01:53:43;;;;;;;5.40;3.72;;;;;;;24.42;58.82;98589.06;4914468;29;20267;-67
2022/08/20 01:56:15;;;;;;;4.90;3.60;;;;;;;24.38;59.07;98593.94;4914107;29;20239;-66
2022/08/20 01:58:48;;;;;;;5.53;3.40;;;;;;;24.33;59.56;98585.13;4914119;29;20691;-67
2022/08/20 02:01:24;;;;;;;4.93;3.13;;;;;;;24.31;59.45;98587.13;4913180;29;20235;-67
2022/08/20 02:03:52;;;;;;;5.47;3.50;;;;;;;24.27;59.32;98591.19;4914155;29;20203;-67
2022/08/20 02:06:24;;;;;;;5.78;3.58;;;;;;;24.21;59.80;98592.03;4914389;29;20714;-67
2022/08/20 02:08:53;;;;;;;6.13;3.50;;;;;;;24.23;59.88;98595.22;4914019;29;20390;-67
2022/08/20 02:11:23;;;;;;;6.00;3.67;;;;;;;24.19;60.05;98589.63;4914053;29;20453;-67
2022/08/20 02:13:51;;;;;;;5.72;3.88;;;;;;;24.18;59.82;98588.84;4914080;29;20215;-67
2022/08/20 02:16:20;;;;;;;4.68;3.47;;;;;;;24.13;60.33;98591.28;4914047;29;20684;-67
2022/08/20 02:18:50;;;;;;;5.18;3.50;;;;;;;24.08;60.54;98593.72;4913931;29;20686;-67
2022/08/20 02:21:17;;;;;;;5.93;3.90;;;;;;;24.08;60.63;98592.91;4913516;29;20615;-67
2022/08/20 02:23:44;;;;;;;5.60;3.75;;;;;;;24.06;60.38;98593.13;4913794;29;20596;-66
2022/08/20 02:26:10;;;;;;;5.72;3.65;;;;;;;24.05;60.76;98588.91;4913558;29;20777;-67
2022/08/20 02:28:39;;;;;;;5.63;4.00;;;;;;;24.05;60.83;98588.09;4913658;29;20208;-66
2022/08/20 02:31:07;;;;;;;7.85;3.80;;;;;;;24.02;60.93;98589.31;4913389;29;20240;-66
2022/08/20 02:33:34;;;;;;;5.40;3.97;;;;;;;24.04;60.75;98594.34;4913679;29;20209;-66
2022/08/20 02:36:02;;;;;;;4.75;3.40;;;;;;;23.98;61.00;98590.78;4913611;29;20235;-67
2022/08/20 02:38:29;;;;;;;6.22;3.70;;;;;;;23.98;61.48;98587.38;4913382;29;20235;-67
2022/08/20 02:40:56;;;;;;;5.25;3.60;;;;;;;24.00;61.18;98586.16;4913532;29;20310;-67
2022/08/20 02:43:23;;;;;;;4.97;3.65;;;;;;;23.89;61.58;98590.22;4913411;29;20629;-66
2022/08/20 02:45:52;;;;;;;4.80;3.70;;;;;;;23.84;61.92;98591.84;4913312;29;20232;-66
2022/08/20 02:48:21;;;;;;;6.47;3.33;;;;;;;23.83;62.02;98601.50;4913636;29;20222;-67
2022/08/20 02:50:54;;;;;;;5.15;3.70;;;;;;;23.80;62.27;98595.91;4913433;29;20314;-67
2022/08/20 02:53:21;;;;;;;4.85;3.65;;;;;;;23.81;62.55;98587.03;4913544;29;20216;-67
2022/08/20 02:55:48;;;;;;;5.88;3.70;;;;;;;23.77;62.61;98589.28;4913543;29;20227;-67
2022/08/20 02:58:15;;;;;;;4.53;3.40;;;;;;;23.73;62.57;98596.69;4913197;29;20236;-67
2022/08/20 03:00:43;;;;;;;4.63;3.55;;;;;;;23.79;62.77;98589.06;4913476;29;20303;-67
2022/08/20 03:03:12;;;;;;;5.55;3.78;;;;;;;23.77;62.86;98593.69;4913246;29;20210;-66
2022/08/20 03:05:42;;;;;;;6.70;3.65;;;;;;;23.77;63.12;98586.66;4913320;29;20327;-66
2022/08/20 03:08:11;;;;;;;4.80;3.50;;;;;;;23.76;63.11;98589.47;4912995;29;20215;-67
2022/08/20 03:10:40;;;;;;;5.13;3.80;;;;;;;23.67;63.26;98581.03;4913178;29;20232;-67
2022/08/20 03:13:11;;;;;;;6.05;3.63;;;;;;;23.70;63.06;98591.91;4916675;29;20234;-67
2022/08/20 03:15:40;;;;;;;6.28;3.65;;;;;;;23.63;63.39;98591.09;4919306;29;20224;-67
2022/08/20 03:18:07;;;;;;;6.40;4.03;;;;;;;23.66;63.39;98584.69;4919241;29;20196;-67
2022/08/20 03:20:35;;;;;;;6.18;3.72;;;;;;;23.65;63.50;98588.28;4919336;29;20227;-66
2022/08/20 03:23:02;;;;;;;5.60;3.80;;;;;;;23.62;63.82;98594.72;4919374;29;20204;-67
2022/08/20 03:25:29;;;;;;;6.10;4.18;;;;;;;23.61;63.30;98600.94;4919283;29;20231;-67
2022/08/20 03:27:56;;;;;;;5.40;3.75;;;;;;;23.55;63.84;98599.16;4919350;29;20267;-66
2022/08/20 03:30:25;;;;;;;6.28;3.88;;;;;;;23.50;64.35;98601.56;4919196;29;20725;-67
2022/08/20 03:32:52;;;;;;;4.63;3.75;;;;;;;23.55;64.15;98604.38;4919220;29;20238;-67
2022/08/20 03:35:21;;;;;;;5.18;3.53;;;;;;;23.56;63.96;98599.97;4919276;29;20232;-67
2022/08/20 03:37:50;;;;;;;5.80;4.00;;;;;;;23.55;64.07;98604.38;4919217;29;20705;-67
2022/08/20 03:40:20;;;;;;;5.43;3.92;;;;;;;23.50;64.15;98606.81;4919440;29;20228;-66
2022/08/20 03:42:47;;;;;;;5.07;3.80;;;;;;;23.50;64.23;98612.00;4919181;29;20204;-67
2022/08/20 03:45:14;;;;;;;6.07;3.85;;;;;;;23.42;64.66;98609.66;4919272;29;20733;-67
2022/08/20 03:47:42;;;;;;;5.97;4.10;;;;;;;23.49;64.38;98610.44;4919021;29;20207;-66
2022/08/20 03:50:10;;;;;;;6.43;3.92;;;;;;;23.48;64.23;98614.06;4918995;29;20662;-67
2022/08/20 03:52:37;;;;;;;5.32;3.97;;;;;;;23.54;64.66;98612.44;4918885;29;20242;-67
2022/08/20 03:55:08;;;;;;;8.27;3.80;;;;;;;23.49;64.55;98610.44;4918864;29;20227;-67
2022/08/20 03:57:35;;;;;;;4.93;3.70;;;;;;;23.46;65.13;98609.03;4919334;29;20208;-66
2022/08/20 04:00:04;;;;;;;4.65;3.80;;;;;;;23.49;64.83;98610.44;4918938;29;20228;-67
2022/08/20 04:02:32;;;;;;;6.33;4.20;;;;;;;23.59;64.71;98608.19;4918870;29;20275;-67
2022/08/20 04:04:59;;;;;;;6.25;3.85;;;;;;;23.51;64.86;98608.41;4918882;29;20240;-67
2022/08/20 04:07:26;;;;;;;5.15;4.00;;;;;;;23.46;65.33;98616.06;4918812;29;20212;-67
2022/08/20 04:09:53;;;;;;;7.00;4.20;;;;;;;23.61;65.08;98608.78;4919061;29;20713;-67
2022/08/20 04:12:23;;;;;;;5.57;3.80;;;;;;;23.58;65.33;98614.41;4919091;29;20235;-67
2022/08/20 04:14:50;;;;;;;6.93;3.95;;;;;;;23.62;64.50;98609.56;4918840;29;20725;-66
2022/08/20 04:17:18;;;;;;;7.38;4.13;;;;;;;23.77;64.59;98611.97;4918738;29;20215;-67
2022/08/20 04:19:46;;;;;;;5.75;3.97;;;;;;;23.75;64.78;98612.16;4918901;29;20234;-67
2022/08/20 04:22:13;;;;;;;6.63;3.63;;;;;;;23.76;64.84;98615.56;4918704;29;20226;-66
2022/08/20 04:24:41;;;;;;;6.05;3.88;;;;;;;23.78;64.84;98614.38;4915966;29;20228;-67
2022/08/20 04:27:09;;;;;;;7.53;4.10;;;;;;;23.91;64.44;98613.50;4915690;29;20208;-67
2022/08/20 04:29:41;;;;;;;5.93;3.85;;;;;;;23.91;64.85;98613.50;4916010;29;20676;-67
2022/08/20 04:32:08;;;;;;;6.20;3.85;;;;;;;24.09;64.32;98602.38;4915519;29;20240;-66
2022/08/20 04:34:35;;;;;;;5.70;4.05;;;;;;;24.13;64.30;98606.16;4915516;29;20235;-66
2022/08/20 04:37:03;;;;;;;5.03;3.58;;;;;;;24.10;66.15;98611.78;4915644;29;20200;-66
2022/08/20 04:39:30;;;;;;;4.97;3.65;;;;;;;24.11;65.67;98614.19;4915786;29;20584;-67
2022/08/20 04:41:56;;;;;;;4.60;3.78;;;;;;;24.22;66.39;98619.75;4915786;29;20276;-67
2022/08/20 04:44:22;;;;;;;6.03;4.03;;;;;;;24.29;65.53;98620.50;4915605;29;20674;-67
2022/08/20 04:46:51;;;;;;;6.65;4.15;;;;;;;24.42;64.96;98625.66;4915482;29;20220;-66
2022/08/20 04:49:25;;;;;;;8.80;4.53;;;;;;;24.60;64.70;98623.13;4915545;29;20211;-67
2022/08/20 04:51:53;;;;;;;6.38;4.10;;;;;;;24.88;63.97;98624.53;4915452;29;20595;-67
2022/08/20 04:54:20;;;;;;;5.97;4.03;;;;;;;25.01;63.33;98613.94;4915555;29;20208;-67
2022/08/20 04:56:47;;;;;;;6.47;4.32;;;;;;;25.12;63.54;98620.28;4915190;29;20621;-67
2022/08/20 04:59:14;;;;;;;7.18;3.90;;;;;;;25.30;63.10;98622.13;4915405;29;20219;-67
2022/08/20 05:01:40;;;;;;;6.32;4.05;;;;;;;25.52;61.26;98623.31;4915226;29;20219;-66
2022/08/20 05:04:09;;;;;;;6.32;4.40;;;;;;;25.62;61.40;98627.22;4915092;29;20208;-66
2022/08/20 05:06:36;;;;;;;5.70;4.00;;;;;;;25.74;61.51;98628.09;4914991;29;20724;-67
2022/08/20 05:09:04;;;;;;;5.57;4.00;;;;;;;25.84;61.14;98628.41;4914919;29;20206;-67
2022/08/20 05:11:31;;;;;;;4.95;3.75;;;;;;;25.99;60.07;98624.59;4914906;29;20227;-67
2022/08/20 05:13:58;;;;;;;6.70;4.28;;;;;;;26.16;58.97;98625.56;4914773;29;20204;-67
2022/08/20 05:16:25;;;;;;;7.50;4.15;;;;;;;26.26;58.56;98625.03;4914974;29;20247;-66
2022/08/20 05:18:52;;;;;;;5.05;3.67;;;;;;;26.37;58.99;98622.44;4915277;29;20219;-66
2022/08/20 05:21:21;;;;;;;5.25;3.75;;;;;;;26.48;59.50;98627.94;4915047;29;20232;-67
2022/08/20 05:23:47;;;;;;;5.25;3.90;;;;;;;26.61;57.12;98623.28;4914988;29;20219;-66
2022/08/20 05:26:14;;;;;;;4.38;3.60;;;;;;;26.75;58.26;98634.38;4914705;29;20680;-66
2022/08/20 05:28:41;;;;;;;6.00;3.83;;;;;;;26.91;56.92;98627.66;4914550;29;20200;-67
2022/08/20 05:31:09;;;;;;;5.50;3.95;;;;;;;26.98;56.96;98627.56;4914526;29;20224;-67
2022/08/20 05:33:37;;;;;;;5.68;3.75;;;;;;;27.06;57.33;98629.84;4914721;29;20248;-66
2022/08/20 05:36:06;;;;;;;5.22;3.85;;;;;;;27.18;56.61;98633.28;4914453;29;20224;-67
2022/08/20 05:38:36;;;;;;;6.55;4.50;;;;;;;27.28;57.42;98632.69;4914549;29;20204;-66
2022/08/20 05:41:04;;;;;;;4.88;3.75;;;;;;;27.47;57.70;98635.97;4914357;29;20224;-66
2022/08/20 05:43:32;;;;;;;5.95;4.45;;;;;;;27.66;55.06;98634.78;4914637;29;20236;-67
2022/08/20 05:46:00;;;;;;;6.80;4.35;;;;;;;27.71;55.24;98640.13;4914743;29;20228;-67
2022/08/20 05:48:27;;;;;;;6.28;4.07;;;;;;;27.85;55.87;98632.03;4914338;29;20697;-67
2022/08/20 05:50:55;;;;;;;5.95;3.88;;;;;;;27.93;55.09;98629.81;4914496;29;20227;-67
2022/08/20 05:53:24;;;;;;;5.07;3.97;;;;;;;28.06;54.53;98633.97;4914201;29;20232;-67
2022/08/20 05:55:53;;;;;;;5.38;4.10;;;;;;;28.28;55.42;98630.69;4914520;29;20236;-66
2022/08/20 05:58:22;;;;;;;6.80;4.25;;;;;;;28.43;53.85;98628.34;4914191;29;20575;-67
2022/08/20 06:00:51;;;;;;;6.63;4.50;;;;;;;28.54;53.40;98627.47;4914290;29;20228;-66
2022/08/20 06:06:03;;;;;;;5.75;4.00;;;;;;;28.84;53.84;98623.72;4914147;29;20363;-66
2022/08/20 06:08:30;;;;;;;5.03;3.63;;;;;;;28.88;51.67;98624.81;4913939;29;20243;-67
2022/08/20 06:10:59;;;;;;;6.18;4.05;;;;;;;28.94;51.86;98629.09;4914286;29;20224;-67
2022/08/20 06:13:27;;;;;;;5.57;4.10;;;;;;;29.01;52.08;98629.75;4913962;29;20235;-67
2022/08/20 06:15:54;;;;;;;6.82;4.10;;;;;;;29.14;52.98;98627.84;4913687;29;20228;-66
2022/08/20 06:18:21;;;;;;;5.68;4.13;;;;;;;29.29;50.57;98628.03;4913717;29;20219;-67
2022/08/20 06:20:48;;;;;;;5.68;4.25;;;;;;;29.49;51.35;98625.66;4913944;29;20231;-66
2022/08/20 06:23:15;;;;;;;7.10;4.10;;;;;;;29.62;50.77;98624.53;4913626;29;20200;-66
2022/08/20 06:25:42;;;;;;;4.60;3.65;;;;;;;29.79;48.88;98629.72;4913764;29;20231;-65
2022/08/20 06:28:13;;;;;;;5.93;4.13;;;;;;;29.80;48.88;98633.16;4913841;29;20200;-66
2022/08/20 06:30:40;;;;;;;5.45;4.07;;;;;;;29.85;49.46;98626.09;4913777;29;20468;-66
2022/08/20 06:33:07;;;;;;;7.13;4.45;;;;;;;30.03;48.92;98629.44;4913420;29;20242;-67
2022/08/20 06:35:36;;;;;;;5.28;3.78;;;;;;;30.34;48.36;98635.78;4913524;29;20243;-66
2022/08/20 06:38:04;;;;;;;6.85;4.15;;;;;;;30.48;47.75;98639.63;4913611;29;20200;-66
2022/08/20 06:40:33;;;;;;;4.40;3.70;;;;;;;30.55;48.80;98636.78;4913626;29;20224;-66
2022/08/20 06:43:00;;;;;;;6.85;4.55;;;;;;;30.70;46.86;98639.53;4913832;29;20662;-66
2022/08/20 06:45:30;;;;;;;5.38;3.85;;;;;;;30.79;46.96;98638.03;4913730;29;20231;-66
2022/08/20 06:48:00;;;;;;;5.53;3.47;;;;;;;30.81;45.87;98651.00;4912785;29;20654;-65
2022/08/20 06:50:38;;;;;;;5.82;3.88;;;;;;;30.71;48.08;98651.66;4913358;29;20227;-65
2022/08/20 06:53:05;;;;;;;6.63;4.10;;;;;;;30.86;46.83;98654.47;4913204;29;20566;-66
2022/08/20 06:55:32;;;;;;;6.28;4.22;;;;;;;30.97;45.53;98649.25;4913143;29;20231;-66
2022/08/20 06:58:01;;;;;;;4.10;3.63;;;;;;;31.13;46.77;98653.56;4913026;29;20683;-66
2022/08/20 07:00:31;;;;;;;4.40;3.70;;;;;;;31.15;44.76;98650.66;4913401;29;20220;-66
2022/08/20 07:02:59;;;;;;;5.05;3.58;;;;;;;31.23;45.27;98658.09;4913016;29;20673;-65
2022/08/20 07:05:27;;;;;;;5.10;3.72;;;;;;;31.01;46.04;98659.03;4912813;29;20624;-66
2022/08/20 07:07:54;;;;;;;5.78;3.85;;;;;;;31.09;45.82;98663.81;4913026;29;20690;-65
2022/08/20 07:10:23;;;;;;;4.22;3.60;;;;;;;31.31;45.10;98654.97;4913474;29;20242;-66
2022/08/20 07:12:50;;;;;;;6.53;3.90;;;;;;;31.40;46.32;98653.47;4912917;29;20271;-66
2022/08/20 07:15:19;;;;;;;4.80;3.42;;;;;;;31.49;44.18;98656.41;4913256;29;20232;-66
2022/08/20 07:17:50;;;;;;;5.40;3.90;;;;;;;31.75;45.86;98649.38;4912865;29;20596;-66
2022/08/20 07:20:18;;;;;;;5.15;3.42;;;;;;;31.89;43.96;98653.09;4913048;29;20228;-66
2022/08/20 07:22:45;;;;;;;6.07;3.88;;;;;;;32.13;44.36;98644.72;4912986;29;20698;-66
2022/08/20 07:25:14;;;;;;;4.78;3.63;;;;;;;32.18;43.49;98642.88;4912870;29;20758;-66
2022/08/20 07:27:42;;;;;;;4.28;3.67;;;;;;;32.22;43.01;98637.84;4911839;29;20232;-66
2022/08/20 07:32:58;;;;;;;5.32;4.30;;;;;;;32.24;44.24;98636.53;4912954;29;20878;-58
2022/08/20 07:35:26;;;;;;;6.53;3.88;;;;;;;32.09;42.67;98633.09;4912994;29;20247;-58
2022/08/20 07:37:54;;;;;;;5.20;3.38;;;;;;;31.91;43.26;98631.72;4913058;29;20709;-66
2022/08/20 07:40:26;;;;;;;5.03;3.50;;;;;;;31.76;44.90;98633.22;4912654;29;20224;-66
2022/08/20 07:42:53;;;;;;;4.47;3.35;;;;;;;32.08;43.35;98621.69;4912527;29;20687;-66
2022/08/20 07:45:20;;;;;;;4.22;3.30;;;;;;;32.28;43.57;98620.13;4912340;29;20228;-66
2022/08/20 07:47:49;;;;;;;5.70;3.88;;;;;;;32.12;42.67;98622.78;4912729;29;20204;-65
2022/08/20 07:50:20;;;;;;;8.57;5.30;;;;;;;32.29;43.89;98622.53;4912518;29;20286;-66
2022/08/20 07:52:51;;;;;;;10.65;5.95;;;;;;;32.56;42.80;98624.94;4912884;29;20239;-65
2022/08/20 07:55:19;;;;;;;6.10;4.00;;;;;;;32.73;41.50;98627.28;4912788;29;20498;-65
2022/08/20 07:57:48;;;;;;;7.78;4.95;;;;;;;32.87;41.69;98608.97;4912596;29;20211;-66
2022/08/20 08:00:16;;;;;;;5.95;4.43;;;;;;;33.00;41.91;98616.41;4914178;29;20228;-66
2022/08/20 08:02:43;;;;;;;6.18;4.05;;;;;;;32.93;41.57;98618.53;4916253;29;20216;-66
2022/08/20 08:05:11;;;;;;;4.32;3.60;;;;;;;33.08;41.58;98618.50;4916251;29;20232;-66
2022/08/20 08:07:40;;;;;;;7.78;4.07;;;;;;;33.34;43.39;98619.22;4916435;29;20208;-66
2022/08/20 08:10:10;;;;;;;4.22;3.30;;;;;;;33.23;40.92;98625.59;4916183;29;20221;-66
2022/08/20 08:12:40;;;;;;;4.47;3.50;;;;;;;33.40;41.97;98611.25;4916232;29;20196;-66
2022/08/20 08:15:11;;;;;;;5.35;3.60;;;;;;;33.46;42.94;98613.59;4915940;29;20228;-67
2022/08/20 08:17:39;;;;;;;4.40;3.75;;;;;;;33.73;43.83;98604.47;4916060;29;20204;-66
2022/08/20 08:20:07;;;;;;;3.85;3.40;;;;;;;33.77;40.61;98605.50;4915705;29;20718;-66
2022/08/20 08:22:34;;;;;;;5.10;3.67;;;;;;;33.98;41.62;98609.63;4915813;29;20604;-66
2022/08/20 08:25:03;;;;;;;4.20;3.35;;;;;;;34.24;40.83;98601.50;4915621;29;20231;-67
2022/08/20 08:27:31;;;;;;;6.25;3.90;;;;;;;34.30;40.14;98604.88;4915888;29;20694;-66
2022/08/20 08:29:58;;;;;;;5.13;3.80;;;;;;;34.39;40.83;98606.66;4915933;29;20236;-67
2022/08/20 08:32:25;;;;;;;4.93;3.80;;;;;;;34.30;40.53;98600.38;4915862;29;20668;-67
2022/08/20 08:34:52;;;;;;;6.85;3.65;;;;;;;34.43;40.26;98599.72;4915854;29;20506;-66
2022/08/20 08:37:19;;;;;;;6.00;3.80;;;;;;;34.54;40.12;98599.66;4915695;29;20211;-67
2022/08/20 08:39:46;;;;;;;5.32;3.75;;;;;;;34.75;39.73;98597.59;4915645;29;20235;-67
2022/08/20 08:42:25;;;;;;;5.10;3.72;;;;;;;34.84;39.54;98594.03;4915474;29;20212;-65
2022/08/20 08:44:53;;;;;;;7.32;3.85;;;;;;;34.84;40.88;98588.72;4915642;29;20439;-66
2022/08/20 08:47:28;;;;;;;4.03;3.45;;;;;;;35.06;40.52;98584.81;4915767;29;20264;-66
2022/08/20 08:49:56;;;;;;;5.95;3.63;;;;;;;35.25;38.19;98580.31;4915410;29;20243;-65
2022/08/20 08:52:28;;;;;;;4.47;3.50;;;;;;;35.11;38.50;98579.41;4915562;29;20212;-66
2022/08/20 08:54:58;;;;;;;3.85;3.30;;;;;;;35.06;38.09;98579.50;4915293;29;20334;-65
2022/08/20 08:57:27;;;;;;;4.07;3.58;;;;;;;35.02;38.77;98571.25;4915159;29;20211;-66
2022/08/20 08:59:59;;;;;;;4.25;3.30;;;;;;;35.03;38.08;98564.09;4915220;29;20230;-65
2022/08/20 09:02:28;;;;;;;4.10;3.28;;;;;;;35.17;37.87;98565.03;4915462;29;20714;-59
2022/08/20 09:04:57;;;;;;;4.85;3.55;;;;;;;35.28;38.11;98571.75;4915065;29;20228;-58
2022/08/20 09:07:30;;;;;;;4.07;3.10;;;;;;;35.41;37.43;98564.97;4915422;29;20203;-58
2022/08/20 09:09:57;;;;;;;4.47;3.42;;;;;;;35.25;36.90;98572.34;4914479;29;20228;-58
2022/08/20 09:12:27;;;;;;;4.13;3.33;;;;;;;35.36;37.26;98563.16;4915011;29;20200;-59
2022/08/20 09:14:54;;;;;;;4.38;3.58;;;;;;;35.65;38.03;98554.28;4914730;29;20726;-59
2022/08/20 09:17:23;;;;;;;5.50;3.30;;;;;;;35.50;35.44;98554.47;4915048;29;20211;-58
2022/08/20 09:19:51;;;;;;;4.35;3.25;;;;;;;35.42;35.49;98560.44;4915103;29;20232;-58
2022/08/20 09:22:20;;;;;;;6.00;3.58;;;;;;;35.60;35.64;98554.34;4914896;29;20582;-58
2022/08/20 09:24:46;;;;;;;4.63;3.45;;;;;;;35.45;36.36;98554.53;4914325;29;20220;-58
2022/08/20 09:27:14;;;;;;;4.50;3.00;;;;;;;35.35;36.01;98548.28;4914250;29;20713;-59
2022/08/20 09:29:42;;;;;;;3.53;3.03;;;;;;;35.63;36.44;98555.66;4914759;29;20228;-58
2022/08/20 09:32:12;;;;;;;4.95;3.42;;;;;;;35.47;34.38;98550.53;4914625;29;20204;-58
2022/08/20 09:34:40;;;;;;;3.85;3.22;;;;;;;35.65;36.11;98543.63;4914317;29;20315;-58
2022/08/20 09:37:08;;;;;;;3.67;3.03;;;;;;;36.04;35.79;98531.88;4914555;29;20204;-58
2022/08/20 09:39:34;;;;;;;6.05;4.43;;;;;;;36.09;33.96;98539.78;4914555;29;20294;-58
2022/08/20 09:42:09;;;;;;;9.82;6.45;;;;;;;35.94;34.98;98529.38;4914450;29;20216;-57
2022/08/20 09:44:36;;;;;;;4.40;3.33;;;;;;;35.83;34.00;98537.50;4914383;29;20219;-58
2022/08/20 09:47:05;;;;;;;44.53;19.27;;;;;;;36.06;34.64;98527.06;4913666;29;20686;-58
2022/08/20 09:49:32;;;;;;;34.45;15.73;;;;;;;36.38;33.80;98533.44;4914322;29;20208;-58
2022/08/20 09:52:01;;;;;;;23.13;9.43;;;;;;;36.17;33.45;98531.13;4914288;29;20304;-58
2022/08/20 09:54:29;;;;;;;22.63;11.80;;;;;;;36.31;33.81;98527.72;4914179;29;20228;-58
2022/08/20 09:56:56;;;;;;;9.10;5.43;;;;;;;36.47;33.69;98523.66;4914211;29;20212;-58
2022/08/20 09:59:24;;;;;;;4.80;3.75;;;;;;;36.32;33.93;98522.09;4913922;29;20697;-58
2022/08/20 10:01:51;;;;;;;4.53;3.33;;;;;;;36.39;33.04;98524.34;4913454;29;20212;-58
2022/08/20 10:04:19;;;;;;;9.25;5.70;;;;;;;36.81;33.96;98525.19;4913905;29;20211;-58
2022/08/20 10:06:46;;;;;;;4.75;3.28;;;;;;;36.76;31.31;98530.63;4914076;29;20208;-58
2022/08/20 10:09:14;;;;;;;4.38;3.70;;;;;;;36.86;34.48;98538.44;4913961;29;21321;-58
2022/08/20 10:11:40;;;;;;;5.10;3.58;;;;;;;36.74;32.68;98530.13;4914027;29;20208;-58
2022/08/20 10:14:08;;;;;;;3.67;3.20;;;;;;;36.63;32.01;98533.00;4912897;29;20231;-58
2022/08/20 10:16:35;;;;;;;5.40;4.15;;;;;;;36.83;32.31;98533.66;4914160;29;20224;-59
2022/08/20 10:19:03;;;;;;;4.55;3.42;;;;;;;36.74;32.10;98530.91;4913539;29;20728;-58
2022/08/20 10:21:32;;;;;;;3.42;3.13;;;;;;;36.76;33.38;98533.28;4913372;29;20224;-58
2022/08/20 10:23:59;;;;;;;4.85;3.38;;;;;;;36.24;33.74;98531.53;4913248;29;20227;-58
2022/08/20 10:26:26;;;;;;;5.53;3.80;;;;;;;36.72;33.75;98528.53;4913671;29;20235;-58
2022/08/20 10:28:53;;;;;;;4.35;3.28;;;;;;;37.02;34.55;98515.72;4913522;29;20683;-58
2022/08/20 10:31:20;;;;;;;3.78;3.40;;;;;;;37.01;33.43;98514.16;4913664;29;20310;-58
2022/08/20 10:33:47;;;;;;;4.78;3.35;;;;;;;37.27;34.41;98510.94;4913451;29;20256;-58
2022/08/20 10:36:18;;;;;;;3.80;3.10;;;;;;;37.55;34.01;98506.31;4913510;29;20234;-58
2022/08/20 10:38:47;;;;;;;4.40;3.55;;;;;;;37.46;32.73;98508.09;4913523;29;20216;-58
2022/08/20 10:41:14;;;;;;;4.70;3.60;;;;;;;37.47;33.46;98505.16;4913392;29;20716;-58
2022/08/20 10:43:41;;;;;;;3.80;3.22;;;;;;;37.34;33.48;98506.75;4913412;29;20208;-58
2022/08/20 10:46:08;;;;;;;4.35;3.60;;;;;;;36.72;33.30;98501.91;4913223;29;20229;-58
2022/08/20 10:48:35;;;;;;;4.72;3.78;;;;;;;36.30;34.37;98510.16;4913613;29;20215;-58
2022/08/20 10:51:02;;;;;;;4.45;3.45;;;;;;;36.12;33.57;98501.94;4913358;29;20220;-58
2022/08/20 10:53:29;;;;;;;4.70;3.63;;;;;;;36.13;35.75;98503.53;4913159;29;20220;-58
2022/08/20 10:55:57;;;;;;;4.47;3.45;;;;;;;35.89;34.51;98510.81;4913259;29;20235;-58
2022/08/20 10:58:25;;;;;;;4.95;3.47;;;;;;;35.83;34.46;98508.22;4913247;29;20246;-63
2022/08/20 11:00:52;;;;;;;4.90;3.20;;;;;;;35.75;35.17;98511.59;4913246;29;20228;-64
2022/08/20 11:03:19;;;;;;;5.93;4.05;;;;;;;35.96;36.12;98503.28;4913470;29;20196;-64
2022/08/20 11:05:47;;;;;;;4.22;3.33;;;;;;;35.95;34.95;98505.13;4913136;29;20242;-62
2022/08/20 11:08:14;;;;;;;4.30;3.53;;;;;;;35.88;34.75;98498.59;4913005;29;20295;-63
2022/08/20 11:10:41;;;;;;;4.20;3.50;;;;;;;35.92;34.45;98499.59;4913015;29;20235;-63
2022/08/20 11:13:11;;;;;;;6.68;3.80;;;;;;;35.94;36.19;98508.88;4912956;29;20196;-60
2022/08/20 11:15:41;;;;;;;4.65;3.95;;;;;;;36.20;36.39;98500.47;4913270;29;20243;-59
2022/08/20 11:18:08;;;;;;;4.03;3.20;;;;;;;36.40;35.29;98505.44;4915327;29;20207;-61
2022/08/20 11:20:36;;;;;;;4.38;3.33;;;;;;;36.61;33.48;98511.19;4927654;29;20618;-57
2022/08/20 11:23:03;;;;;;;5.55;3.58;;;;;;;36.77;33.48;98513.53;4931815;29;20210;-59
2022/08/20 11:25:30;;;;;;;4.75;3.58;;;;;;;36.62;36.51;98507.44;4932273;29;20243;-59
2022/08/20 11:27:57;;;;;;;5.32;3.50;;;;;;;36.74;35.30;98504.25;4931850;29;20211;-58
2022/08/20 11:30:28;;;;;;;3.97;3.45;;;;;;;36.82;33.34;98508.13;4932056;29;20643;-58
2022/08/20 11:32:55;;;;;;;7.57;3.95;;;;;;;36.80;33.85;98511.09;4931981;29;20195;-58
2022/08/20 11:35:23;;;;;;;4.05;3.47;;;;;;;36.88;33.88;98480.28;4935795;29;20242;-58
2022/08/20 11:37:50;;;;;;;4.65;3.58;;;;;;;36.60;32.13;98488.31;4935796;29;20210;-57
2022/08/20 11:40:17;;;;;;;4.05;3.33;;;;;;;36.70;33.09;98488.09;4935689;29;20231;-59
2022/08/20 11:42:46;;;;;;;3.72;3.30;;;;;;;36.78;33.33;98480.50;4935814;29;20211;-58
2022/08/20 11:45:14;;;;;;;4.22;3.65;;;;;;;37.02;34.48;98494.41;4935511;29;20234;-59